Time;durP1;ratioP1;P1;durP2;ratioP2;P2;SDS_P1;SDS_P2;PMS_P1;PMS_P2;Temp;Humidity;BMP_temperature;BMP_pressure;BME280_temperature;BME280_humidity;BME280_pressure;Samples;Min_cycle;Max_cycle;Signal;HPM_P1;HPM_P2
2023/08/24 00:02:42;;;;;;;17.30;14.65;;;;;;;;;;6310497;28;20036;-65
2023/08/24 00:05:44;;;;;;;16.48;11.77;;;;;;;;;;6310164;28;20079;-65
2023/08/24 00:08:47;;;;;;;17.73;10.65;;;;;;;;;;6296968;28;20036;-66
2023/08/24 00:11:50;;;;;;;16.63;12.82;;;;;;;;;;6311026;28;20059;-65
2023/08/24 00:14:53;;;;;;;15.98;10.10;;;;;;;;;;6309130;28;20626;-65
2023/08/24 00:17:55;;;;;;;15.77;10.75;;;;;;;;;;6302320;28;20039;-65
2023/08/24 00:20:57;;;;;;;13.00;10.48;;;;;;;;;;6310950;28;20464;-64
2023/08/24 00:23:59;;;;;;;17.08;13.18;;;;;;;;;;6311368;28;20128;-65
2023/08/24 00:27:01;;;;;;;17.75;12.45;;;;;;;;;;6310280;28;20450;-64
2023/08/24 00:30:06;;;;;;;16.90;11.88;;;;;;;;;;6310454;28;20446;-64
2023/08/24 00:33:09;;;;;;;16.42;13.93;;;;;;;;;;6302495;28;20082;-64
2023/08/24 00:36:12;;;;;;;15.20;10.35;;;;;;;;;;6305884;28;20048;-64
2023/08/24 00:39:16;;;;;;;16.83;13.55;;;;;;;;;;6300309;28;20048;-65
2023/08/24 00:42:18;;;;;;;17.10;11.10;;;;;;;;;;6310679;28;20052;-64
2023/08/24 00:45:21;;;;;;;13.75;9.80;;;;;;;;;;6309932;28;20059;-64
2023/08/24 00:48:25;;;;;;;15.80;14.02;;;;;;;;;;6293059;28;20048;-65
2023/08/24 00:51:29;;;;;;;13.02;10.07;;;;;;;;;;6308854;28;20050;-64
2023/08/24 00:54:32;;;;;;;13.73;10.75;;;;;;;;;;6311759;28;20059;-63
2023/08/24 00:57:35;;;;;;;15.90;10.93;;;;;;;;;;6296328;28;20096;-63
2023/08/24 01:00:38;;;;;;;15.73;10.38;;;;;;;;;;6296449;28;20044;-64
2023/08/24 01:03:40;;;;;;;15.73;10.88;;;;;;;;;;6280664;28;20056;-64
2023/08/24 01:06:42;;;;;;;15.02;13.18;;;;;;;;;;6312027;28;20044;-64
2023/08/24 01:09:44;;;;;;;17.35;13.98;;;;;;;;;;6312445;28;20058;-63
2023/08/24 01:13:04;;;;;;;17.98;14.60;;;;;;;;;;6269752;28;20074;-64
2023/08/24 01:16:12;;;;;;;20.35;14.73;;;;;;;;;;6298310;28;20095;-64
2023/08/24 01:19:30;;;;;;;17.00;10.68;;;;;;;;;;6304974;28;20633;-66
2023/08/24 01:22:51;;;;;;;17.20;13.70;;;;;;;;;;6285521;28;20137;-64
2023/08/24 01:26:01;;;;;;;14.50;12.98;;;;;;;;;;6296099;28;20048;-64
2023/08/24 01:29:04;;;;;;;17.63;13.70;;;;;;;;;;6311247;28;20040;-63
2023/08/24 01:32:10;;;;;;;16.30;13.40;;;;;;;;;;6311251;28;20143;-63
2023/08/24 01:35:14;;;;;;;17.88;13.95;;;;;;;;;;6311552;28;20048;-64
2023/08/24 01:38:16;;;;;;;15.73;11.00;;;;;;;;;;6287568;28;20554;-64
2023/08/24 01:41:23;;;;;;;18.10;13.82;;;;;;;;;;6295834;28;20048;-64
2023/08/24 01:44:26;;;;;;;17.05;13.52;;;;;;;;;;6295719;28;20047;-63
2023/08/24 01:47:29;;;;;;;16.60;11.43;;;;;;;;;;6276124;28;20755;-64
2023/08/24 01:50:31;;;;;;;13.65;10.52;;;;;;;;;;6279946;28;20106;-64
2023/08/24 01:53:34;;;;;;;15.15;12.77;;;;;;;;;;6280202;28;20546;-64
2023/08/24 01:56:36;;;;;;;15.35;11.05;;;;;;;;;;6280853;28;20483;-64
2023/08/24 01:59:38;;;;;;;14.93;10.35;;;;;;;;;;6300269;28;20599;-63
2023/08/24 02:02:44;;;;;;;15.23;11.02;;;;;;;;;;6297385;28;20047;-63
2023/08/24 02:05:46;;;;;;;14.15;9.38;;;;;;;;;;6309234;28;20040;-64
2023/08/24 02:08:48;;;;;;;16.05;14.32;;;;;;;;;;6298776;28;20130;-64
2023/08/24 02:11:50;;;;;;;15.07;10.02;;;;;;;;;;6314277;28;20440;-64
2023/08/24 02:14:52;;;;;;;16.88;14.80;;;;;;;;;;6297615;28;20733;-63
2023/08/24 02:17:55;;;;;;;15.60;12.25;;;;;;;;;;6315865;28;20551;-64
2023/08/24 02:20:57;;;;;;;20.48;15.02;;;;;;;;;;6315583;28;20067;-63
2023/08/24 02:24:00;;;;;;;15.52;11.07;;;;;;;;;;6298307;28;20052;-64
2023/08/24 02:27:03;;;;;;;17.27;15.02;;;;;;;;;;6316776;28;20126;-64
2023/08/24 02:30:06;;;;;;;14.63;10.50;;;;;;;;;;6315431;28;20129;-65
2023/08/24 02:33:08;;;;;;;15.00;11.30;;;;;;;;;;6316490;28;20060;-64
2023/08/24 02:36:10;;;;;;;16.40;12.05;;;;;;;;;;6316317;28;20126;-63
2023/08/24 02:39:12;;;;;;;16.33;14.35;;;;;;;;;;6303446;28;20054;-64
2023/08/24 02:42:14;;;;;;;16.52;14.02;;;;;;;;;;6315748;28;20048;-64
2023/08/24 02:45:16;;;;;;;18.48;13.98;;;;;;;;;;6304570;28;20054;-64
2023/08/24 02:48:18;;;;;;;15.77;11.90;;;;;;;;;;6297459;28;20441;-64
2023/08/24 02:51:23;;;;;;;16.80;12.13;;;;;;;;;;6301233;28;20493;-65
2023/08/24 02:54:25;;;;;;;18.08;14.38;;;;;;;;;;6315543;28;20052;-65
2023/08/24 02:57:27;;;;;;;15.65;11.80;;;;;;;;;;6302912;28;20036;-64
2023/08/24 03:00:30;;;;;;;18.20;11.25;;;;;;;;;;6315614;28;20784;-65
2023/08/24 03:03:33;;;;;;;16.63;12.35;;;;;;;;;;6315405;28;20059;-64
2023/08/24 03:06:35;;;;;;;17.45;15.27;;;;;;;;;;6315108;28;20048;-65
2023/08/24 03:09:38;;;;;;;18.83;15.13;;;;;;;;;;6314813;28;20048;-65
2023/08/24 03:12:40;;;;;;;18.02;11.27;;;;;;;;;;6313625;28;20040;-64
2023/08/24 03:15:42;;;;;;;17.83;11.77;;;;;;;;;;6314605;28;20050;-65
2023/08/24 03:18:45;;;;;;;18.88;14.77;;;;;;;;;;6298807;28;20458;-65
2023/08/24 03:21:47;;;;;;;16.40;13.93;;;;;;;;;;6314130;28;20083;-64
2023/08/24 03:24:50;;;;;;;16.73;15.00;;;;;;;;;;6305840;28;20135;-65
2023/08/24 03:27:52;;;;;;;16.58;12.95;;;;;;;;;;6313572;28;20044;-64
2023/08/24 03:30:55;;;;;;;15.55;11.43;;;;;;;;;;6313813;28;20873;-64
2023/08/24 03:33:57;;;;;;;20.77;15.77;;;;;;;;;;6314042;28;20796;-65
2023/08/24 03:36:59;;;;;;;19.90;16.27;;;;;;;;;;6313251;28;20040;-64
2023/08/24 03:40:03;;;;;;;20.42;16.58;;;;;;;;;;6314404;28;20049;-65
2023/08/24 03:43:06;;;;;;;16.45;11.68;;;;;;;;;;6308280;28;20051;-64
2023/08/24 03:46:08;;;;;;;21.77;17.10;;;;;;;;;;6317107;28;20040;-65
2023/08/24 03:49:10;;;;;;;20.73;16.00;;;;;;;;;;6294828;28;20040;-65
2023/08/24 03:52:12;;;;;;;19.55;15.70;;;;;;;;;;6313281;28;20056;-64
2023/08/24 03:55:16;;;;;;;20.85;16.83;;;;;;;;;;6304719;28;20044;-66
2023/08/24 03:58:20;;;;;;;19.77;12.60;;;;;;;;;;6300622;28;20048;-65
2023/08/24 04:01:22;;;;;;;21.30;15.55;;;;;;;;;;6304087;28;20043;-66
2023/08/24 04:04:25;;;;;;;20.13;16.90;;;;;;;;;;6314679;28;20036;-67
2023/08/24 04:07:27;;;;;;;19.50;16.42;;;;;;;;;;6295379;28;20048;-67
2023/08/24 04:10:29;;;;;;;19.63;16.80;;;;;;;;;;6298090;28;20036;-66
2023/08/24 04:13:33;;;;;;;19.05;15.55;;;;;;;;;;6305412;28;20056;-67
2023/08/24 04:16:35;;;;;;;20.08;15.18;;;;;;;;;;6313369;28;20550;-66
2023/08/24 04:19:38;;;;;;;22.02;16.98;;;;;;;;;;6314076;28;20129;-67
2023/08/24 04:22:40;;;;;;;16.38;12.60;;;;;;;;;;6299738;28;20874;-67
2023/08/24 04:25:43;;;;;;;17.75;15.70;;;;;;;;;;6313248;28;20815;-67
2023/08/24 04:28:45;;;;;;;18.45;12.75;;;;;;;;;;6313250;28;20141;-66
2023/08/24 04:31:47;;;;;;;19.80;12.95;;;;;;;;;;6315904;28;20205;-66
2023/08/24 04:34:49;;;;;;;19.85;17.38;;;;;;;;;;6288691;28;20047;-66
2023/08/24 04:37:51;;;;;;;20.00;16.67;;;;;;;;;;6311443;28;20544;-66
2023/08/24 04:40:55;;;;;;;20.95;16.75;;;;;;;;;;6311647;28;20048;-66
2023/08/24 04:43:57;;;;;;;19.73;17.02;;;;;;;;;;6311338;28;20100;-66
2023/08/24 04:46:59;;;;;;;18.95;16.48;;;;;;;;;;6310478;28;20079;-66
2023/08/24 04:50:01;;;;;;;19.30;12.30;;;;;;;;;;6291188;28;20055;-66
2023/08/24 04:53:03;;;;;;;19.88;15.70;;;;;;;;;;6310913;28;20055;-66
2023/08/24 04:56:05;;;;;;;19.98;13.68;;;;;;;;;;6310407;28;20040;-66
2023/08/24 04:59:08;;;;;;;19.95;13.95;;;;;;;;;;6313046;28;20043;-66
2023/08/24 05:02:10;;;;;;;17.60;12.80;;;;;;;;;;6311249;28;20052;-65
2023/08/24 05:05:15;;;;;;;21.45;16.25;;;;;;;;;;6311774;28;20530;-64
2023/08/24 05:08:17;;;;;;;19.45;12.43;;;;;;;;;;6310957;28;20118;-64
2023/08/24 05:11:21;;;;;;;21.33;14.50;;;;;;;;;;6311222;28;20529;-65
2023/08/24 05:14:23;;;;;;;23.65;17.25;;;;;;;;;;6310005;28;20040;-64
2023/08/24 05:17:27;;;;;;;20.55;14.00;;;;;;;;;;6295677;28;20040;-65
2023/08/24 05:20:31;;;;;;;23.20;15.02;;;;;;;;;;6309055;28;20104;-64
2023/08/24 05:23:33;;;;;;;26.42;17.50;;;;;;;;;;6308378;28;20085;-64
2023/08/24 05:26:36;;;;;;;23.48;14.48;;;;;;;;;;6311276;28;20051;-64
2023/08/24 05:29:38;;;;;;;23.67;17.17;;;;;;;;;;6313869;28;20139;-64
2023/08/24 05:32:40;;;;;;;21.27;13.80;;;;;;;;;;6316924;28;20461;-65
2023/08/24 05:35:42;;;;;;;20.60;15.32;;;;;;;;;;6315964;28;20083;-66
2023/08/24 05:38:46;;;;;;;19.33;16.17;;;;;;;;;;6316466;28;20047;-66
2023/08/24 05:41:52;;;;;;;17.27;12.18;;;;;;;;;;6315830;28;20074;-65
2023/08/24 05:44:54;;;;;;;19.83;12.63;;;;;;;;;;6316429;28;20591;-65
2023/08/24 05:47:57;;;;;;;19.13;15.40;;;;;;;;;;6316107;28;20084;-65
2023/08/24 05:51:01;;;;;;;18.75;15.63;;;;;;;;;;6316358;28;20048;-65
2023/08/24 05:54:03;;;;;;;16.80;13.10;;;;;;;;;;6314639;28;20056;-66
2023/08/24 05:57:05;;;;;;;20.50;13.88;;;;;;;;;;6315994;28;20426;-65
2023/08/24 06:00:10;;;;;;;16.35;12.57;;;;;;;;;;6316096;28;20074;-65
2023/08/24 06:03:16;;;;;;;19.55;13.68;;;;;;;;;;6316590;28;20534;-65
2023/08/24 06:06:18;;;;;;;22.88;16.23;;;;;;;;;;6315999;28;20662;-65
2023/08/24 06:09:21;;;;;;;22.58;14.02;;;;;;;;;;6316152;28;20123;-64
2023/08/24 06:12:23;;;;;;;19.88;13.30;;;;;;;;;;6316332;28;20044;-64
2023/08/24 06:15:27;;;;;;;19.50;13.23;;;;;;;;;;6315487;28;20857;-64
2023/08/24 06:18:29;;;;;;;;;;;;;;;;;;6315948;28;20040;-65
2023/08/24 06:21:31;;;;;;;21.10;16.40;;;;;;;;;;6314965;28;19924;-65
2023/08/24 06:24:33;;;;;;;19.77;13.65;;;;;;;;;;6315737;28;20040;-66
2023/08/24 06:27:36;;;;;;;18.00;12.48;;;;;;;;;;6315266;28;20044;-66
2023/08/24 06:30:39;;;;;;;18.73;12.40;;;;;;;;;;6315997;28;20043;-66
2023/08/24 06:33:41;;;;;;;19.85;15.73;;;;;;;;;;6315477;28;20127;-65
2023/08/24 06:36:43;;;;;;;16.45;11.32;;;;;;;;;;6315629;28;20143;-66
2023/08/24 06:39:45;;;;;;;19.40;15.68;;;;;;;;;;6315049;28;20048;-65
2023/08/24 06:42:49;;;;;;;22.70;14.65;;;;;;;;;;6310792;28;20058;-66
2023/08/24 06:45:51;;;;;;;17.23;12.15;;;;;;;;;;6307909;28;20044;-67
2023/08/24 06:48:53;;;;;;;18.80;13.10;;;;;;;;;;6305617;28;20036;-66
2023/08/24 06:51:56;;;;;;;18.30;14.73;;;;;;;;;;6307546;28;20076;-66
2023/08/24 06:54:59;;;;;;;17.25;13.00;;;;;;;;;;6306779;28;20139;-66
2023/08/24 06:58:02;;;;;;;17.73;14.57;;;;;;;;;;6310193;28;20522;-67
2023/08/24 07:01:06;;;;;;;20.38;15.25;;;;;;;;;;6309536;28;20152;-66
2023/08/24 07:04:08;;;;;;;17.10;14.07;;;;;;;;;;6309281;28;20036;-66
2023/08/24 07:07:11;;;;;;;19.20;15.15;;;;;;;;;;6311698;28;20707;-66
2023/08/24 07:10:13;;;;;;;20.15;15.43;;;;;;;;;;6284724;28;20158;-66
2023/08/24 07:13:15;;;;;;;17.13;14.00;;;;;;;;;;6303171;28;20138;-66
2023/08/24 07:16:17;;;;;;;20.42;15.68;;;;;;;;;;6310963;28;20044;-64
2023/08/24 07:19:20;;;;;;;18.52;12.57;;;;;;;;;;6308966;28;20419;-65
2023/08/24 07:22:23;;;;;;;18.63;15.15;;;;;;;;;;6300599;28;20212;-65
2023/08/24 07:25:25;;;;;;;21.05;14.90;;;;;;;;;;6302143;28;20079;-65
2023/08/24 07:28:27;;;;;;;16.83;14.90;;;;;;;;;;6312368;28;20078;-64
2023/08/24 07:31:29;;;;;;;17.77;15.00;;;;;;;;;;6310538;28;20085;-64
2023/08/24 07:34:31;;;;;;;21.52;14.13;;;;;;;;;;6311829;28;20052;-64
2023/08/24 07:56:43;;;;;;;22.85;13.48;;;;;;;;;;6276272;27;20788;-69
2023/08/24 07:59:45;;;;;;;17.35;12.77;;;;;;;;;;6253642;27;20105;-68
2023/08/24 08:02:51;;;;;;;19.20;12.88;;;;;;;;;;6251463;27;20825;-68
2023/08/24 08:05:54;;;;;;;16.30;12.32;;;;;;;;;;6247968;27;20117;-67
2023/08/24 08:08:57;;;;;;;16.90;12.93;;;;;;;;;;6253186;27;20146;-68
2023/08/24 08:11:59;;;;;;;19.33;13.57;;;;;;;;;;6250745;27;20538;-68
2023/08/24 08:15:02;;;;;;;18.80;12.07;;;;;;;;;;6280875;27;20467;-70
2023/08/24 08:18:06;;;;;;;17.02;12.15;;;;;;;;;;6286821;27;20043;-69
2023/08/24 08:21:17;;;;;;;17.98;12.10;;;;;;;;;;6260505;27;20048;-68
2023/08/24 08:24:23;;;;;;;16.27;11.93;;;;;;;;;;6247853;27;20072;-68
2023/08/24 08:27:27;;;;;;;16.00;11.13;;;;;;;;;;6252647;27;20049;-68
2023/08/24 08:30:29;;;;;;;16.63;10.85;;;;;;;;;;6274987;27;20045;-68
2023/08/24 08:33:31;;;;;;;17.05;11.65;;;;;;;;;;6295685;27;20049;-68
2023/08/24 08:36:33;;;;;;;14.52;11.40;;;;;;;;;;6240000;27;20102;-67
2023/08/24 08:39:35;;;;;;;15.73;10.23;;;;;;;;;;6238185;27;20049;-67
2023/08/24 08:42:37;;;;;;;15.52;10.63;;;;;;;;;;6314250;27;20078;-67
2023/08/24 08:45:39;;;;;;;14.70;12.13;;;;;;;;;;6304827;27;20326;-67
2023/08/24 08:48:43;;;;;;;14.32;11.40;;;;;;;;;;6247243;27;20049;-67
2023/08/24 08:51:45;;;;;;;14.25;10.52;;;;;;;;;;6252784;27;20049;-67
2023/08/24 08:54:47;;;;;;;16.30;9.70;;;;;;;;;;6250019;27;20074;-67
2023/08/24 08:57:50;;;;;;;16.65;11.27;;;;;;;;;;6225639;28;20065;-68
2023/08/24 09:00:53;;;;;;;14.55;10.40;;;;;;;;;;6221110;28;20057;-67
2023/08/24 09:03:57;;;;;;;14.07;9.93;;;;;;;;;;6230473;28;20380;-67
2023/08/24 09:07:03;;;;;;;14.57;10.60;;;;;;;;;;6233120;28;20056;-68
2023/08/24 09:10:07;;;;;;;13.88;10.50;;;;;;;;;;6258978;27;20065;-67
2023/08/24 09:13:09;;;;;;;12.85;8.70;;;;;;;;;;6233739;28;20140;-67
2023/08/24 09:16:15;;;;;;;12.38;8.50;;;;;;;;;;6224710;28;20136;-68
2023/08/24 09:19:17;;;;;;;11.60;9.60;;;;;;;;;;6235685;28;20055;-68
2023/08/24 09:22:20;;;;;;;11.70;8.98;;;;;;;;;;6264724;27;20049;-68
2023/08/24 09:25:23;;;;;;;11.18;9.18;;;;;;;;;;6288648;27;20035;-67
2023/08/24 09:28:25;;;;;;;11.48;9.52;;;;;;;;;;6230204;28;20042;-67
2023/08/24 09:31:38;;;;;;;13.52;8.85;;;;;;;;;;6268014;27;20051;-67
2023/08/24 09:34:41;;;;;;;13.75;8.35;;;;;;;;;;6235724;28;20052;-68
2023/08/24 09:37:45;;;;;;;13.75;9.20;;;;;;;;;;6235485;28;20467;-67
2023/08/24 09:40:52;;;;;;;11.07;8.80;;;;;;;;;;6282837;27;20060;-67
2023/08/24 09:43:54;;;;;;;12.07;9.32;;;;;;;;;;6255225;27;20518;-67
2023/08/24 09:46:56;;;;;;;11.90;8.50;;;;;;;;;;6232352;27;20057;-67
2023/08/24 09:49:59;;;;;;;12.93;10.95;;;;;;;;;;6243927;27;20443;-68
2023/08/24 09:53:02;;;;;;;13.27;9.88;;;;;;;;;;6246843;27;20056;-68
2023/08/24 09:56:07;;;;;;;11.80;10.10;;;;;;;;;;6278323;27;20043;-67
2023/08/24 09:59:14;;;;;;;10.60;9.35;;;;;;;;;;6230184;28;20046;-69
2023/08/24 10:02:20;;;;;;;9.85;8.77;;;;;;;;;;6291900;27;20098;-68
2023/08/24 10:05:26;;;;;;;10.85;8.82;;;;;;;;;;6256579;27;20080;-68
2023/08/24 10:08:49;;;;;;;13.30;9.30;;;;;;;;;;6219721;28;20057;-68
2023/08/24 10:11:58;;;;;;;12.25;10.98;;;;;;;;;;6218405;28;20447;-68
2023/08/24 10:15:03;;;;;;;14.68;9.38;;;;;;;;;;6254653;27;20046;-66
2023/08/24 10:18:06;;;;;;;11.95;10.00;;;;;;;;;;6221646;28;20125;-67
2023/08/24 10:21:08;;;;;;;10.73;8.65;;;;;;;;;;6223651;28;20054;-67
2023/08/24 10:24:12;;;;;;;11.65;8.95;;;;;;;;;;6250255;27;20039;-67
2023/08/24 10:27:15;;;;;;;12.63;9.65;;;;;;;;;;6225117;28;20045;-66
2023/08/24 10:30:18;;;;;;;13.68;11.18;;;;;;;;;;6223952;28;20041;-67
2023/08/24 10:33:21;;;;;;;12.38;11.05;;;;;;;;;;6233294;28;20077;-67
2023/08/24 10:36:23;;;;;;;12.32;11.13;;;;;;;;;;6234650;28;20041;-67
2023/08/24 10:39:28;;;;;;;13.13;11.80;;;;;;;;;;6249249;27;20823;-67
2023/08/24 10:42:46;;;;;;;12.77;11.00;;;;;;;;;;6235027;28;20049;-67
2023/08/24 10:45:58;;;;;;;12.73;9.10;;;;;;;;;;6252230;27;20048;-67
2023/08/24 10:49:04;;;;;;;12.23;9.55;;;;;;;;;;6221877;28;20049;-67
2023/08/24 10:52:19;;;;;;;11.98;8.73;;;;;;;;;;6223817;27;20046;-67
2023/08/24 10:55:23;;;;;;;9.23;8.23;;;;;;;;;;6225964;28;20121;-68
2023/08/24 10:58:25;;;;;;;;;;;;;;;;;;6222538;28;20104;-67
2023/08/24 11:01:27;;;;;;;14.07;9.38;;;;;;;;;;6219491;27;19981;-68
2023/08/24 11:04:29;;;;;;;11.05;9.85;;;;;;;;;;6224434;28;20046;-67
2023/08/24 11:07:31;;;;;;;14.65;9.75;;;;;;;;;;6277761;27;20132;-68
2023/08/24 11:10:42;;;;;;;11.05;9.95;;;;;;;;;;6268177;27;20326;-67
2023/08/24 11:14:17;;;;;;;14.68;8.90;;;;;;;;;;6220012;28;20077;-66
2023/08/24 11:17:20;;;;;;;11.25;9.25;;;;;;;;;;6236232;27;20041;-68
2023/08/24 11:20:22;;;;;;;10.73;9.10;;;;;;;;;;6224184;27;20057;-68
2023/08/24 11:23:25;;;;;;;13.32;9.60;;;;;;;;;;6244629;27;20148;-67
2023/08/24 11:26:27;;;;;;;11.30;9.30;;;;;;;;;;6220900;28;20082;-67
2023/08/24 11:29:29;;;;;;;11.98;9.82;;;;;;;;;;6217990;28;20049;-66
2023/08/24 11:32:31;;;;;;;11.07;9.35;;;;;;;;;;6225085;28;20050;-66
2023/08/24 11:35:37;;;;;;;12.95;9.10;;;;;;;;;;6254059;27;20039;-67
2023/08/24 11:38:40;;;;;;;9.13;8.05;;;;;;;;;;6221822;28;20053;-67
2023/08/24 11:41:44;;;;;;;13.00;11.60;;;;;;;;;;6248373;28;20925;-68
2023/08/24 11:44:48;;;;;;;10.27;8.32;;;;;;;;;;6231598;28;20045;-67
2023/08/24 11:47:54;;;;;;;;;;;;;;;;;;6229454;28;20053;-67
2023/08/24 11:50:59;;;;;;;12.93;10.38;;;;;;;;;;6230352;28;19921;-67
2023/08/24 11:54:02;;;;;;;15.07;11.07;;;;;;;;;;6227436;28;20064;-66
2023/08/24 11:57:11;;;;;;;14.45;11.57;;;;;;;;;;6222585;28;20050;-67
2023/08/24 12:00:14;;;;;;;14.15;11.15;;;;;;;;;;6220383;28;20080;-68
2023/08/24 12:03:16;;;;;;;15.90;11.85;;;;;;;;;;6231403;28;20041;-68
2023/08/24 12:06:18;;;;;;;15.98;11.07;;;;;;;;;;6228157;28;20487;-66
2023/08/24 12:09:20;;;;;;;14.45;11.77;;;;;;;;;;6224207;28;20049;-67
2023/08/24 12:12:23;;;;;;;16.10;11.70;;;;;;;;;;6241884;28;20038;-67
2023/08/24 12:15:29;;;;;;;14.85;12.05;;;;;;;;;;6285693;28;20037;-67
2023/08/24 12:18:35;;;;;;;15.32;12.13;;;;;;;;;;6229289;28;20106;-68
2023/08/24 12:21:43;;;;;;;16.75;12.90;;;;;;;;;;6236887;28;20050;-68
2023/08/24 12:24:46;;;;;;;14.85;12.65;;;;;;;;;;6221763;28;20038;-68
2023/08/24 12:27:48;;;;;;;17.27;12.63;;;;;;;;;;6231287;28;20049;-68
2023/08/24 12:30:52;;;;;;;13.93;11.95;;;;;;;;;;6272698;27;20043;-65
2023/08/24 12:34:03;;;;;;;14.55;12.80;;;;;;;;;;6237371;28;20105;-68
2023/08/24 12:37:05;;;;;;;13.70;11.85;;;;;;;;;;6296458;27;20067;-67
2023/08/24 12:40:08;;;;;;;12.25;10.85;;;;;;;;;;6252339;27;20122;-67
2023/08/24 12:43:10;;;;;;;14.57;11.45;;;;;;;;;;6251820;28;20053;-67
2023/08/24 12:46:12;;;;;;;15.07;12.43;;;;;;;;;;6240780;28;20091;-67
2023/08/24 12:49:14;;;;;;;12.95;10.50;;;;;;;;;;6235086;27;20047;-65
2023/08/24 12:52:16;;;;;;;13.40;10.48;;;;;;;;;;6258695;27;20037;-66
2023/08/24 12:55:18;;;;;;;14.35;10.55;;;;;;;;;;6257862;27;20049;-67
2023/08/24 12:58:21;;;;;;;11.55;10.18;;;;;;;;;;6256171;28;20128;-67
2023/08/24 13:01:23;;;;;;;11.48;9.82;;;;;;;;;;6236196;27;20046;-66
2023/08/24 13:04:25;;;;;;;12.65;10.43;;;;;;;;;;6245070;28;20042;-67
2023/08/24 13:07:27;;;;;;;15.20;10.45;;;;;;;;;;6273446;27;20081;-66
2023/08/24 13:10:29;;;;;;;13.55;9.88;;;;;;;;;;6253555;27;20056;-66
2023/08/24 13:13:31;;;;;;;13.75;10.52;;;;;;;;;;6254658;28;20076;-67
2023/08/24 13:16:33;;;;;;;14.30;10.25;;;;;;;;;;6256689;27;20098;-67
2023/08/24 13:19:37;;;;;;;17.17;10.57;;;;;;;;;;6263473;27;20049;-67
2023/08/24 13:22:39;;;;;;;15.23;10.52;;;;;;;;;;6254688;27;20053;-67
2023/08/24 13:25:41;;;;;;;13.70;10.07;;;;;;;;;;6251831;27;20158;-66
2023/08/24 13:28:43;;;;;;;17.23;12.02;;;;;;;;;;6243426;28;20053;-66
2023/08/24 13:31:45;;;;;;;14.35;10.27;;;;;;;;;;6237944;27;20142;-67
2023/08/24 13:34:47;;;;;;;15.82;10.70;;;;;;;;;;6226597;28;20080;-67
2023/08/24 13:37:50;;;;;;;12.15;9.68;;;;;;;;;;6236947;27;20050;-67
2023/08/24 13:40:53;;;;;;;10.60;9.50;;;;;;;;;;6230533;27;20045;-67
2023/08/24 13:43:55;;;;;;;11.18;9.93;;;;;;;;;;6257374;28;20045;-67
2023/08/24 13:46:57;;;;;;;13.25;9.40;;;;;;;;;;6247764;27;20065;-67
2023/08/24 13:49:59;;;;;;;14.38;11.15;;;;;;;;;;6238240;27;21300;-68
2023/08/24 13:53:01;;;;;;;13.25;9.55;;;;;;;;;;6219610;28;20071;-67
2023/08/24 13:56:03;;;;;;;11.40;8.30;;;;;;;;;;6242559;27;20100;-67
2023/08/24 13:59:05;;;;;;;10.20;8.82;;;;;;;;;;6232826;27;20047;-67
2023/08/24 14:02:08;;;;;;;11.88;9.80;;;;;;;;;;6284146;27;20104;-67
2023/08/24 14:05:10;;;;;;;13.00;8.73;;;;;;;;;;6246701;27;20057;-67
2023/08/24 14:08:13;;;;;;;13.00;8.70;;;;;;;;;;6309046;27;20057;-67
2023/08/24 14:11:17;;;;;;;13.73;8.65;;;;;;;;;;6254423;27;20047;-67
2023/08/24 14:14:19;;;;;;;10.45;9.38;;;;;;;;;;6253931;27;20050;-68
2023/08/24 14:17:22;;;;;;;12.25;8.55;;;;;;;;;;6278182;27;20038;-67
2023/08/24 14:20:24;;;;;;;9.77;8.30;;;;;;;;;;6238465;28;20420;-67
2023/08/24 14:23:26;;;;;;;12.20;8.73;;;;;;;;;;6275494;27;20049;-67
2023/08/24 14:26:28;;;;;;;9.88;8.82;;;;;;;;;;6281477;27;20050;-67
2023/08/24 14:29:30;;;;;;;11.00;8.60;;;;;;;;;;6273480;27;20316;-68
2023/08/24 14:32:33;;;;;;;10.02;8.23;;;;;;;;;;6267475;27;20791;-67
2023/08/24 14:35:35;;;;;;;11.77;9.95;;;;;;;;;;6247273;27;20045;-67
2023/08/24 14:38:41;;;;;;;10.15;8.85;;;;;;;;;;6215016;28;20128;-67
2023/08/24 14:41:43;;;;;;;10.13;8.70;;;;;;;;;;6265627;27;20880;-66
2023/08/24 14:44:45;;;;;;;11.60;8.45;;;;;;;;;;6286113;27;20170;-67
2023/08/24 14:47:47;;;;;;;9.48;8.20;;;;;;;;;;6255197;27;20073;-66
2023/08/24 14:50:49;;;;;;;10.50;9.18;;;;;;;;;;6236449;28;20050;-66
2023/08/24 14:53:51;;;;;;;10.95;9.10;;;;;;;;;;6260313;27;20094;-66
2023/08/24 14:56:53;;;;;;;11.95;9.18;;;;;;;;;;6221208;28;20042;-66
2023/08/24 14:59:55;;;;;;;12.27;8.25;;;;;;;;;;6240142;28;20057;-66
2023/08/24 15:02:57;;;;;;;15.32;9.52;;;;;;;;;;6279531;27;20060;-66
2023/08/24 15:06:04;;;;;;;11.23;9.02;;;;;;;;;;6225766;28;20046;-67
2023/08/24 15:09:07;;;;;;;12.45;8.13;;;;;;;;;;6249933;27;20039;-67
2023/08/24 15:12:11;;;;;;;15.85;8.93;;;;;;;;;;6245524;28;20044;-68
2023/08/24 15:15:16;;;;;;;15.40;10.38;;;;;;;;;;6283313;27;20043;-68
2023/08/24 15:18:19;;;;;;;13.98;9.48;;;;;;;;;;6237061;28;20036;-68
2023/08/24 15:21:21;;;;;;;14.52;9.45;;;;;;;;;;6235336;28;20459;-68
2023/08/24 15:24:23;;;;;;;10.88;9.45;;;;;;;;;;6253403;28;20527;-67
2023/08/24 15:27:25;;;;;;;9.50;8.00;;;;;;;;;;6288944;27;20039;-68
2023/08/24 15:30:27;;;;;;;19.55;9.43;;;;;;;;;;6221280;27;20046;-68
2023/08/24 15:33:29;;;;;;;11.60;8.40;;;;;;;;;;6255149;27;20038;-68
2023/08/24 15:36:32;;;;;;;11.30;8.52;;;;;;;;;;6234225;27;20106;-68
2023/08/24 15:39:38;;;;;;;15.23;9.25;;;;;;;;;;6244755;28;20054;-68
2023/08/24 15:42:41;;;;;;;14.18;10.10;;;;;;;;;;6232428;28;20061;-67
2023/08/24 15:45:43;;;;;;;17.92;9.57;;;;;;;;;;6253000;28;20043;-68
2023/08/24 15:48:45;;;;;;;13.43;10.00;;;;;;;;;;6228445;28;20054;-68
2023/08/24 15:51:47;;;;;;;17.02;10.43;;;;;;;;;;6236625;28;20077;-68
2023/08/24 15:54:52;;;;;;;14.93;9.85;;;;;;;;;;6278608;28;20053;-68
2023/08/24 15:57:54;;;;;;;10.75;7.63;;;;;;;;;;6278394;28;20172;-68
2023/08/24 16:00:56;;;;;;;12.20;8.73;;;;;;;;;;6253669;28;20038;-68
2023/08/24 16:03:58;;;;;;;13.52;9.18;;;;;;;;;;6223340;28;20061;-68
2023/08/24 16:07:01;;;;;;;14.27;8.80;;;;;;;;;;6272550;27;20060;-68
2023/08/24 16:10:05;;;;;;;12.55;9.25;;;;;;;;;;6300352;27;20117;-68
2023/08/24 16:13:07;;;;;;;;;;;;;;;;;;6238256;28;20057;-68
2023/08/24 16:16:09;;;;;;;12.35;8.93;;;;;;;;;;6245707;27;20035;-68
2023/08/24 16:19:11;;;;;;;11.63;8.48;;;;;;;;;;6231790;28;20056;-68
2023/08/24 16:22:13;;;;;;;12.80;9.07;;;;;;;;;;6239622;27;20135;-68
2023/08/24 16:25:15;;;;;;;10.48;7.88;;;;;;;;;;6297892;27;20128;-68
2023/08/24 16:28:18;;;;;;;10.27;7.38;;;;;;;;;;6232126;28;20049;-68
2023/08/24 16:31:20;;;;;;;13.00;7.43;;;;;;;;;;6248174;27;20099;-68
2023/08/24 16:34:23;;;;;;;12.95;7.38;;;;;;;;;;6222996;28;20115;-68
2023/08/24 16:37:25;;;;;;;11.27;7.25;;;;;;;;;;6274334;27;20048;-67
2023/08/24 16:40:27;;;;;;;9.77;6.57;;;;;;;;;;6248965;27;20049;-68
2023/08/24 16:43:29;;;;;;;9.75;6.53;;;;;;;;;;6312982;27;20051;-68
2023/08/24 16:46:33;;;;;;;11.13;7.20;;;;;;;;;;6260301;27;20076;-68
2023/08/24 16:49:36;;;;;;;11.75;6.78;;;;;;;;;;6242549;27;20052;-68
2023/08/24 16:52:38;;;;;;;10.27;6.18;;;;;;;;;;6222309;28;20053;-68
2023/08/24 16:55:40;;;;;;;13.23;7.05;;;;;;;;;;6262992;27;20054;-68
2023/08/24 16:58:42;;;;;;;11.82;7.55;;;;;;;;;;6258474;27;20047;-68
2023/08/24 17:01:44;;;;;;;11.02;6.13;;;;;;;;;;6244332;27;20610;-68
2023/08/24 17:04:47;;;;;;;12.02;6.90;;;;;;;;;;6256702;27;20751;-68
2023/08/24 17:08:05;;;;;;;13.98;9.02;;;;;;;;;;6261985;27;20786;-68
2023/08/24 17:11:07;;;;;;;10.88;6.43;;;;;;;;;;6303111;27;20049;-68
2023/08/24 17:14:09;;;;;;;9.90;6.47;;;;;;;;;;6242157;27;20159;-68
2023/08/24 17:17:11;;;;;;;18.10;9.20;;;;;;;;;;6255065;27;20459;-68
2023/08/24 17:20:13;;;;;;;11.63;7.22;;;;;;;;;;6251241;27;20140;-68
2023/08/24 17:23:15;;;;;;;14.35;8.32;;;;;;;;;;6226579;28;20060;-68
2023/08/24 17:26:18;;;;;;;11.63;7.32;;;;;;;;;;6258991;27;20127;-68
2023/08/24 17:29:20;;;;;;;10.63;7.50;;;;;;;;;;6298301;27;20043;-68
2023/08/24 17:32:26;;;;;;;13.07;6.88;;;;;;;;;;6265863;27;20054;-68
2023/08/24 17:35:29;;;;;;;18.63;7.07;;;;;;;;;;6292880;27;20126;-68
2023/08/24 17:38:32;;;;;;;13.73;7.32;;;;;;;;;;6220166;28;20057;-68
2023/08/24 17:41:38;;;;;;;17.25;8.85;;;;;;;;;;6222339;27;20054;-68
2023/08/24 17:44:40;;;;;;;13.07;8.05;;;;;;;;;;6241424;27;20207;-67
2023/08/24 17:47:43;;;;;;;12.25;7.15;;;;;;;;;;6222819;28;20107;-68
2023/08/24 17:50:56;;;;;;;12.55;7.70;;;;;;;;;;6233614;27;20046;-68
2023/08/24 17:53:58;;;;;;;13.23;7.90;;;;;;;;;;6220033;28;20044;-68
2023/08/24 17:57:01;;;;;;;11.60;7.93;;;;;;;;;;6222623;28;20120;-69
2023/08/24 18:00:09;;;;;;;13.25;8.02;;;;;;;;;;6232356;27;20057;-66
2023/08/24 18:03:11;;;;;;;12.48;8.13;;;;;;;;;;6230434;28;20823;-66
2023/08/24 18:06:13;;;;;;;15.13;9.75;;;;;;;;;;6220076;27;20235;-68
2023/08/24 18:09:16;;;;;;;14.77;8.00;;;;;;;;;;6226547;27;20733;-68
2023/08/24 18:12:18;;;;;;;11.68;6.93;;;;;;;;;;6227168;28;20139;-68
2023/08/24 18:15:20;;;;;;;10.93;8.15;;;;;;;;;;6241602;27;20047;-68